Time;durP1;ratioP1;P1;durP2;ratioP2;P2;SDS_P1;SDS_P2;PMS_P1;PMS_P2;Temp;Humidity;BMP_temperature;BMP_pressure;BME280_temperature;BME280_humidity;BME280_pressure;Samples;Min_cycle;Max_cycle;Signal;HPM_P1;HPM_P2
2022/09/07 00:00:14;;;;;;;11.43;5.25;;;19.40;99.90;;;;;;4964840;28;20203;-83
2022/09/07 00:02:39;;;;;;;8.23;5.00;;;19.30;99.90;;;;;;4963187;28;20155;-82
2022/09/07 00:05:05;;;;;;;10.27;5.72;;;19.30;99.90;;;;;;4945925;28;20603;-82
2022/09/07 00:07:31;;;;;;;7.10;5.15;;;19.30;99.90;;;;;;4961240;28;20069;-82
2022/09/07 00:09:57;;;;;;;8.50;5.53;;;19.50;99.90;;;;;;4962872;28;20038;-82
2022/09/07 00:12:22;;;;;;;7.78;4.85;;;19.30;99.90;;;;;;4965661;28;20043;-82
2022/09/07 00:14:48;;;;;;;10.75;5.10;;;19.30;99.90;;;;;;4960183;28;20051;-82
2022/09/07 00:17:13;;;;;;;9.90;4.80;;;19.30;99.90;;;;;;4967720;28;20050;-83
2022/09/07 00:19:39;;;;;;;7.50;4.60;;;19.30;99.90;;;;;;4965302;28;20046;-82
2022/09/07 00:22:05;;;;;;;8.32;4.72;;;19.30;99.90;;;;;;4965945;28;20051;-82
2022/09/07 00:24:30;;;;;;;5.88;4.80;;;19.30;99.90;;;;;;4967145;28;20042;-82
2022/09/07 00:26:56;;;;;;;9.48;4.57;;;19.30;99.90;;;;;;4965809;28;20043;-82
2022/09/07 00:29:22;;;;;;;8.85;4.68;;;19.30;99.90;;;;;;4964512;28;20121;-82
2022/09/07 00:31:47;;;;;;;6.97;5.45;;;19.30;99.90;;;;;;4966774;28;20046;-83
2022/09/07 00:34:13;;;;;;;9.52;5.40;;;19.30;99.90;;;;;;4959732;28;20047;-83
2022/09/07 00:36:38;;;;;;;6.78;4.97;;;19.30;99.90;;;;;;4961007;28;20027;-83
2022/09/07 00:39:04;;;;;;;9.77;5.38;;;19.30;99.90;;;;;;4965569;28;20046;-82
2022/09/07 00:41:30;;;;;;;10.13;5.07;;;19.30;99.90;;;;;;4994144;28;20170;-82
2022/09/07 00:44:17;;;;;;;6.85;5.20;;;19.20;99.90;;;;;;4947879;28;20518;-83
2022/09/07 00:46:43;;;;;;;11.55;6.75;;;19.30;99.90;;;;;;4962134;28;20048;-82
2022/09/07 00:49:17;;;;;;;10.32;7.32;;;19.20;99.90;;;;;;4962537;28;20134;-82
2022/09/07 00:51:49;;;;;;;9.00;6.43;;;19.10;99.90;;;;;;4964559;28;20050;-83
2022/09/07 00:54:20;;;;;;;11.43;7.13;;;19.00;99.90;;;;;;4960589;28;20038;-83
2022/09/07 00:56:47;;;;;;;9.00;7.97;;;19.00;99.90;;;;;;4989272;28;20078;-83
2022/09/07 00:59:15;;;;;;;12.05;9.07;;;18.80;99.90;;;;;;4963820;28;20051;-82
2022/09/07 01:01:41;;;;;;;12.43;8.98;;;18.80;99.90;;;;;;4963414;28;20844;-83
2022/09/07 01:04:07;;;;;;;14.25;10.30;;;18.70;99.90;;;;;;4960566;28;20126;-83
2022/09/07 01:06:36;;;;;;;10.80;9.70;;;18.80;99.90;;;;;;4959481;28;20057;-82
2022/09/07 01:09:05;;;;;;;15.48;9.57;;;18.70;99.90;;;;;;4963813;28;20415;-82
2022/09/07 01:11:33;;;;;;;12.27;11.02;;;18.70;99.90;;;;;;4963352;28;20046;-81
2022/09/07 01:14:00;;;;;;;16.52;11.68;;;18.70;99.90;;;;;;4946396;28;20043;-82
2022/09/07 01:16:38;;;;;;;13.07;11.40;;;18.70;99.90;;;;;;4994023;28;20039;-82
2022/09/07 01:19:18;;;;;;;12.13;10.85;;;18.70;99.90;;;;;;4983017;28;20557;-82
2022/09/07 01:22:18;;;;;;;12.07;10.95;;;18.70;99.90;;;;;;4981499;28;20038;-83
2022/09/07 01:25:05;;;;;;;11.68;10.52;;;18.70;99.90;;;;;;4996960;28;20076;-82
2022/09/07 01:28:03;;;;;;;13.75;10.32;;;18.70;99.90;;;;;;4982899;28;20510;-83
2022/09/07 01:30:33;;;;;;;12.15;9.02;;;18.70;99.90;;;;;;4958550;28;20050;-83
2022/09/07 01:33:07;;;;;;;9.60;8.13;;;18.70;99.90;;;;;;4979732;28;20531;-82
2022/09/07 01:35:46;;;;;;;10.82;8.90;;;18.60;99.90;;;;;;4993092;28;20050;-82
2022/09/07 01:38:35;;;;;;;12.48;9.98;;;18.60;99.90;;;;;;4964611;28;20039;-83
2022/09/07 01:41:42;;;;;;;10.48;9.05;;;18.70;99.90;;;;;;4962666;28;20467;-83
2022/09/07 01:44:16;;;;;;;11.23;9.43;;;18.60;99.90;;;;;;4947055;28;20092;-83
2022/09/07 01:46:50;;;;;;;8.48;7.32;;;18.70;99.90;;;;;;4965085;28;20117;-83
2022/09/07 01:49:44;;;;;;;7.57;6.78;;;18.60;99.90;;;;;;4962708;28;20058;-83
2022/09/07 01:52:34;;;;;;;6.07;5.43;;;18.60;99.90;;;;;;4961948;28;20082;-83
2022/09/07 01:55:10;;;;;;;5.88;4.95;;;18.60;99.90;;;;;;4950892;28;20397;-83
2022/09/07 01:57:44;;;;;;;5.65;3.95;;;18.60;99.90;;;;;;4994433;28;20050;-83
2022/09/07 02:00:17;;;;;;;9.02;4.38;;;18.60;99.90;;;;;;4964672;28;20039;-83
2022/09/07 02:03:03;;;;;;;6.13;4.45;;;18.50;99.90;;;;;;4966211;28;20043;-83
2022/09/07 02:05:57;;;;;;;7.82;3.80;;;18.50;99.90;;;;;;4969449;28;20101;-83
2022/09/07 02:08:45;;;;;;;5.93;3.78;;;18.50;99.90;;;;;;4958456;28;20059;-83
2022/09/07 02:11:18;;;;;;;5.05;4.65;;;18.40;99.90;;;;;;4965722;28;20062;-84
2022/09/07 02:14:13;;;;;;;5.28;4.78;;;18.30;99.90;;;;;;4965215;28;20046;-84
2022/09/07 02:17:01;;;;;;;4.40;4.00;;;18.20;99.90;;;;;;4967991;28;20109;-84
2022/09/07 02:19:33;;;;;;;5.63;3.55;;;18.10;99.90;;;;;;4962069;28;20190;-84
2022/09/07 02:22:07;;;;;;;5.68;4.82;;;18.30;99.90;;;;;;4977460;28;20054;-84
2022/09/07 02:24:38;;;;;;;5.10;4.60;;;18.00;99.90;;;;;;4962307;28;20038;-84
2022/09/07 02:27:11;;;;;;;5.60;4.63;;;18.00;99.90;;;;;;4958709;28;20114;-84
2022/09/07 02:29:37;;;;;;;5.60;5.10;;;18.00;99.90;;;;;;4999181;28;20051;-84
2022/09/07 02:32:03;;;;;;;8.32;4.88;;;18.10;99.90;;;;;;4970060;28;20847;-83
2022/09/07 02:34:28;;;;;;;6.55;5.63;;;17.90;99.90;;;;;;4971535;28;20030;-84
2022/09/07 02:36:55;;;;;;;7.80;5.70;;;17.90;99.90;;;;;;4973704;28;20142;-83
2022/09/07 02:39:21;;;;;;;6.70;5.50;;;17.80;99.90;;;;;;4952042;28;20403;-84
2022/09/07 02:41:46;;;;;;;6.38;5.85;;;17.80;99.90;;;;;;4968501;28;20034;-83
2022/09/07 02:44:19;;;;;;;6.43;5.68;;;17.70;99.90;;;;;;4968305;28;20039;-84
2022/09/07 02:47:01;;;;;;;6.82;6.03;;;17.60;99.90;;;;;;4969026;28;20166;-82
2022/09/07 02:49:36;;;;;;;6.35;5.50;;;17.50;99.90;;;;;;4946855;28;20050;-83
2022/09/07 02:52:29;;;;;;;5.57;4.80;;;18.00;99.90;;;;;;4970419;28;20061;-84
2022/09/07 02:55:16;;;;;;;4.80;4.35;;;17.40;99.90;;;;;;4970918;28;20042;-84
2022/09/07 02:58:06;;;;;;;5.93;5.32;;;17.30;99.90;;;;;;4999316;28;20050;-83
2022/09/07 03:00:37;;;;;;;5.10;4.60;;;17.30;99.90;;;;;;4971134;28;20035;-83
2022/09/07 03:03:26;;;;;;;3.80;3.53;;;17.50;99.90;;;;;;4993304;28;20054;-83
2022/09/07 03:05:58;;;;;;;3.53;3.22;;;17.40;99.90;;;;;;4967245;28;20070;-83
2022/09/07 03:08:46;;;;;;;5.03;3.75;;;17.30;99.90;;;;;;4967464;28;20043;-83
2022/09/07 03:11:13;;;;;;;3.25;2.95;;;17.30;99.90;;;;;;4966920;28;20039;-83
2022/09/07 03:13:38;;;;;;;5.18;3.03;;;17.70;99.90;;;;;;4996441;28;20067;-83
2022/09/07 03:16:04;;;;;;;6.68;4.40;;;17.20;99.90;;;;;;4966914;28;20085;-83
2022/09/07 03:18:30;;;;;;;5.15;3.67;;;17.30;99.90;;;;;;4965795;28;20475;-83
2022/09/07 03:20:56;;;;;;;4.07;3.67;;;17.50;99.90;;;;;;4964718;28;20053;-83
2022/09/07 03:23:22;;;;;;;5.30;3.67;;;17.40;99.90;;;;;;4964024;28;20074;-83
2022/09/07 03:25:48;;;;;;;4.03;3.50;;;17.30;99.90;;;;;;4995950;28;20035;-83
2022/09/07 03:28:14;;;;;;;3.75;3.30;;;17.60;99.90;;;;;;4995224;28;20411;-83
2022/09/07 03:30:42;;;;;;;4.10;3.38;;;17.20;99.90;;;;;;4966745;28;20138;-83
2022/09/07 03:33:08;;;;;;;8.85;4.43;;;17.20;99.90;;;;;;4945723;28;20038;-83
2022/09/07 03:35:34;;;;;;;3.90;3.60;;;17.50;99.90;;;;;;4966834;28;20047;-83
2022/09/07 03:38:00;;;;;;;6.38;3.55;;;17.20;99.90;;;;;;4968641;28;20046;-83
2022/09/07 03:40:26;;;;;;;6.90;4.25;;;17.30;99.90;;;;;;4965188;28;20049;-84
2022/09/07 03:42:52;;;;;;;8.00;4.47;;;17.30;99.90;;;;;;4970787;28;20129;-83
2022/09/07 03:45:18;;;;;;;6.32;4.63;;;17.30;99.90;;;;;;4953919;28;20141;-83
2022/09/07 03:47:43;;;;;;;5.53;4.78;;;17.20;99.90;;;;;;4949048;28;20047;-83
2022/09/07 03:50:10;;;;;;;4.13;3.72;;;17.30;99.90;;;;;;4964148;28;20042;-83
2022/09/07 03:52:36;;;;;;;4.57;4.18;;;17.30;99.90;;;;;;4994257;28;20387;-83
2022/09/07 03:55:02;;;;;;;5.03;3.78;;;17.20;99.90;;;;;;4968643;28;20117;-84
2022/09/07 03:57:27;;;;;;;6.10;5.05;;;17.30;99.90;;;;;;4964085;28;20839;-84
2022/09/07 03:59:53;;;;;;;5.85;4.30;;;17.30;99.90;;;;;;4991007;28;20042;-83
2022/09/07 04:02:19;;;;;;;5.10;4.70;;;17.30;99.90;;;;;;4966440;28;20130;-83
2022/09/07 04:04:44;;;;;;;5.60;5.10;;;17.30;99.90;;;;;;4962674;28;20035;-83
2022/09/07 04:07:11;;;;;;;7.15;5.15;;;17.30;99.90;;;;;;4968015;28;20507;-83
2022/09/07 04:09:37;;;;;;;8.05;5.63;;;17.40;99.90;;;;;;4963170;28;20483;-82
2022/09/07 04:12:47;;;;;;;5.80;5.30;;;17.40;99.90;;;;;;4973248;28;20038;-86
2022/09/07 04:15:45;;;;;;;5.68;5.07;;;17.30;99.90;;;;;;4889104;29;20683;-85
2022/09/07 04:19:40;;;;;;;5.60;5.10;;;17.40;99.90;;;;;;4857116;29;20052;-86
2022/09/07 04:22:38;;;;;;;5.22;4.75;;;17.40;99.90;;;;;;4831065;29;20502;-82
2022/09/07 04:29:43;;;;;;;7.10;4.13;;;17.40;99.90;;;;;;4854191;29;20036;-86
2022/09/07 04:32:46;;;;;;;4.78;4.38;;;17.40;99.90;;;;;;4896597;28;20062;-83
2022/09/07 04:35:16;;;;;;;5.22;4.72;;;17.40;99.90;;;;;;4921433;28;20042;-82
2022/09/07 04:49:35;;;;;;;7.32;6.72;;;17.30;99.90;;;;;;4910761;29;20529;-84
2022/09/07 05:03:57;;;;;;;13.18;11.88;;;17.20;99.90;;;;;;4892801;29;20076;-83
2022/09/07 05:06:24;;;;;;;13.65;12.32;;;17.20;99.90;;;;;;4914596;28;20054;-82
2022/09/07 05:08:52;;;;;;;13.82;12.65;;;17.20;99.90;;;;;;4965873;28;20057;-83
2022/09/07 05:11:19;;;;;;;14.82;13.48;;;17.20;99.90;;;;;;4944321;28;20046;-82
2022/09/07 05:18:07;;;;;;;14.32;13.13;;;17.30;99.90;;;;;;4962367;28;20120;-85
2022/09/07 05:25:50;;;;;;;14.20;12.90;;;17.30;99.90;;;;;;4944918;28;20077;-83
2022/09/07 05:28:54;;;;;;;14.85;13.50;;;17.30;99.90;;;;;;4955212;28;20073;-82
2022/09/07 05:31:41;;;;;;;13.98;12.65;;;17.30;99.90;;;;;;4966828;28;20523;-82
2022/09/07 05:34:10;;;;;;;14.27;12.93;;;17.20;99.90;;;;;;4959200;28;20051;-82
2022/09/07 05:36:54;;;;;;;14.48;12.30;;;17.30;99.90;;;;;;4960491;28;20109;-85
2022/09/07 05:39:55;;;;;;;15.95;14.27;;;17.30;99.90;;;;;;4993323;28;20050;-84
2022/09/07 05:43:08;;;;;;;13.95;12.50;;;17.30;99.90;;;;;;4962121;28;20130;-85
2022/09/07 05:45:57;;;;;;;14.63;13.13;;;17.30;99.90;;;;;;4929048;29;20047;-84
2022/09/07 05:48:23;;;;;;;15.25;13.65;;;17.40;99.90;;;;;;4963472;28;20079;-82
2022/09/07 05:50:59;;;;;;;14.98;13.48;;;17.30;99.90;;;;;;4971935;28;20122;-84
2022/09/07 05:53:31;;;;;;;15.50;13.90;;;17.30;99.90;;;;;;4973590;28;20086;-85
2022/09/07 05:55:58;;;;;;;14.50;13.23;;;17.40;99.90;;;;;;4961485;28;20141;-85
2022/09/07 05:58:27;;;;;;;15.02;13.60;;;17.90;99.90;;;;;;4939277;28;20055;-83
2022/09/07 06:01:13;;;;;;;16.42;14.93;;;17.50;99.90;;;;;;4951422;28;20042;-84
2022/09/07 06:03:39;;;;;;;;;;;17.50;99.90;;;;;;4970415;28;20050;-83
2022/09/07 06:06:06;;;;;;;17.40;14.13;;;17.50;99.90;;;;;;4954742;28;19922;-83
2022/09/07 06:08:33;;;;;;;15.55;13.98;;;17.50;99.90;;;;;;4967819;28;20162;-82
2022/09/07 06:11:35;;;;;;;16.20;14.80;;;17.50;99.90;;;;;;4971094;28;20126;-86
2022/09/07 06:14:55;;;;;;;15.45;13.95;;;17.50;99.90;;;;;;4943557;28;20142;-82
2022/09/07 06:18:00;;;;;;;17.02;13.93;;;17.50;99.90;;;;;;4945725;28;20046;-83
2022/09/07 06:20:40;;;;;;;15.77;14.23;;;17.50;99.90;;;;;;4965379;28;20034;-82
2022/09/07 06:23:22;;;;;;;16.20;14.15;;;17.50;99.90;;;;;;4961699;28;20087;-83
2022/09/07 06:25:54;;;;;;;16.08;14.25;;;17.50;99.90;;;;;;4994848;28;20851;-82
2022/09/07 06:28:48;;;;;;;16.75;15.25;;;17.60;99.90;;;;;;4994813;28;20047;-82
2022/09/07 06:36:17;;;;;;;16.10;14.80;;;17.60;99.90;;;;;;4965437;28;20101;-83
2022/09/07 06:39:41;;;;;;;;;;;17.70;99.90;;;;;;4964084;28;20105;-83
2022/09/07 06:43:19;;;;;;;20.58;18.80;;;17.70;99.90;;;;;;4961309;28;20349;-83
2022/09/07 06:46:25;;;;;;;22.65;20.65;;;17.80;99.90;;;;;;4959064;28;20451;-83
2022/09/07 06:56:56;;;;;;;21.90;19.83;;;18.00;99.90;;;;;;4968182;28;20073;-82
2022/09/07 07:01:00;;;;;;;22.23;20.10;;;18.00;99.90;;;;;;4847142;29;20119;-82
2022/09/07 07:08:14;;;;;;;21.63;19.63;;;17.90;99.90;;;;;;4845538;29;20563;-82
2022/09/07 07:11:53;;;;;;;22.48;20.38;;;18.00;99.90;;;;;;4792694;29;20127;-82
2022/09/07 07:19:08;;;;;;;22.10;20.00;;;18.10;99.90;;;;;;4776083;29;20535;-82
2022/09/07 07:21:58;;;;;;;22.40;20.25;;;18.20;99.90;;;;;;4762242;29;20082;-82
2022/09/07 07:25:14;;;;;;;23.80;21.48;;;18.30;99.90;;;;;;4810032;29;20483;-82
2022/09/07 07:28:34;;;;;;;23.92;21.90;;;18.30;99.90;;;;;;4836844;29;20089;-82
2022/09/07 07:35:07;;;;;;;24.65;22.30;;;18.50;99.90;;;;;;4822378;29;20052;-81
2022/09/07 07:38:36;;;;;;;25.60;23.20;;;18.60;99.90;;;;;;4887744;29;20424;-82
2022/09/07 07:42:21;;;;;;;23.67;21.20;;;18.70;99.90;;;;;;4870560;29;20629;-82
2022/09/07 07:45:15;;;;;;;21.90;19.75;;;18.90;99.90;;;;;;4836528;29;20084;-82
2022/09/07 07:47:49;;;;;;;21.60;19.55;;;18.90;99.90;;;;;;4912608;29;20056;-82
2022/09/07 07:54:46;;;;;;;20.00;18.05;;;19.10;99.90;;;;;;4908542;29;20121;-82
2022/09/07 07:58:28;;;;;;;19.27;17.48;;;19.20;99.90;;;;;;4893986;28;20245;-82
2022/09/07 08:01:53;;;;;;;19.73;18.13;;;19.20;99.90;;;;;;4924715;29;20047;-81
2022/09/07 08:08:19;;;;;;;15.02;13.43;;;19.20;99.90;;;;;;4886343;29;20557;-81
2022/09/07 08:10:58;;;;;;;14.85;13.35;;;19.40;99.90;;;;;;4891198;29;20128;-81
2022/09/07 08:14:07;;;;;;;;;;;19.50;99.90;;;;;;4892077;29;20080;-82
2022/09/07 08:43:24;;;;;;;12.30;11.10;;;20.30;99.90;;;;;;4818140;29;20045;-83
2022/09/07 10:18:53;;;;;;;5.53;4.25;;;23.00;99.90;;;;;;4974223;28;20054;-83
2022/09/07 10:21:22;;;;;;;6.32;4.55;;;23.30;99.90;;;;;;4960559;28;20059;-83
2022/09/07 10:24:08;;;;;;;5.78;4.40;;;23.40;99.90;;;;;;4976411;28;20035;-83
2022/09/07 10:26:40;;;;;;;4.45;3.40;;;23.70;99.90;;;;;;4976315;28;20629;-83
2022/09/07 10:29:41;;;;;;;3.47;3.13;;;23.60;99.90;;;;;;4964805;28;20055;-83
2022/09/07 10:32:19;;;;;;;5.20;3.60;;;23.60;99.90;;;;;;4957411;28;20058;-83
2022/09/07 10:35:07;;;;;;;5.38;4.25;;;23.50;99.90;;;;;;4993435;28;20058;-85
2022/09/07 10:38:28;;;;;;;4.38;3.92;;;23.30;99.90;;;;;;4963855;28;20045;-84
2022/09/07 12:21:04;;;;;;;5.05;3.33;;;25.50;99.90;;;;;;4966130;28;20467;-81
2022/09/07 12:35:32;;;;;;;3.40;2.55;;;25.80;99.90;;;;;;4958898;28;20141;-83
2022/09/07 12:43:20;;;;;;;3.45;1.95;;;26.00;99.90;;;;;;4923113;29;20162;-83
2022/09/07 12:46:34;;;;;;;3.57;1.80;;;26.10;99.90;;;;;;4840348;29;20185;-84
2022/09/07 12:49:35;;;;;;;;;;;26.20;99.90;;;;;;4817709;29;20396;-82
2022/09/07 12:57:03;;;;;;;;;;;;;;;;;;;;;
2022/09/07 14:01:27;;;;;;;2.53;1.80;;;26.70;99.90;;;;;;4941826;28;20503;-83
2022/09/07 14:04:44;;;;;;;2.88;1.27;;;26.60;99.90;;;;;;4948620;28;20046;-84
2022/09/07 14:08:09;;;;;;;3.95;1.90;;;26.50;99.90;;;;;;4915212;28;20050;-83
2022/09/07 14:10:47;;;;;;;4.00;2.08;;;26.50;99.90;;;;;;4910665;28;20050;-83
2022/09/07 14:14:05;;;;;;;3.10;1.60;;;26.50;99.90;;;;;;4942811;28;20047;-83
2022/09/07 14:17:15;;;;;;;2.47;1.70;;;26.50;99.90;;;;;;4957287;28;20058;-82
2022/09/07 14:19:53;;;;;;;3.03;1.53;;;26.30;99.90;;;;;;4952068;28;20066;-82
2022/09/07 15:03:27;;;;;;;2.42;1.08;;;25.00;99.90;;;;;;4942895;28;20041;-82
2022/09/07 15:05:55;;;;;;;1.35;1.02;;;24.90;99.90;;;;;;4951853;28;20635;-83
2022/09/07 15:08:48;;;;;;;2.13;0.95;;;24.80;99.90;;;;;;4955374;28;20084;-88
2022/09/07 15:11:26;;;;;;;1.67;0.95;;;24.80;99.90;;;;;;4961792;28;20051;-84
2022/09/07 15:17:39;;;;;;;3.13;0.85;;;24.70;99.90;;;;;;4940139;28;20053;-83
2022/09/07 15:20:55;;;;;;;1.98;0.98;;;24.60;99.90;;;;;;4959090;28;21308;-85
2022/09/07 15:23:26;;;;;;;3.50;1.00;;;24.50;99.90;;;;;;4960362;28;20043;-82
2022/09/07 15:29:33;;;;;;;1.83;1.00;;;24.40;99.90;;;;;;4957280;28;20053;-80
2022/09/07 15:31:59;;;;;;;1.65;0.75;;;24.30;99.90;;;;;;4959793;28;20039;-82
2022/09/07 15:34:25;;;;;;;7.72;1.75;;;24.00;99.90;;;;;;4927024;28;20094;-82
2022/09/07 15:36:55;;;;;;;2.22;0.63;;;24.30;99.90;;;;;;4955346;28;20522;-82
2022/09/07 15:39:39;;;;;;;3.78;0.68;;;24.30;99.90;;;;;;4953576;28;20058;-84
2022/09/07 15:50:00;;;;;;;3.50;0.60;;;24.30;99.90;;;;;;4823015;29;20045;-85
2022/09/07 15:53:15;;;;;;;1.58;0.55;;;24.20;99.90;;;;;;4826651;29;20058;-83
2022/09/07 15:57:10;;;;;;;2.65;1.08;;;24.20;99.90;;;;;;4767648;29;20055;-83
2022/09/07 16:17:33;;;;;;;4.10;1.48;;;24.40;99.90;;;;;;4954609;28;20034;-81
2022/09/07 16:19:59;;;;;;;1.73;1.05;;;24.30;99.90;;;;;;4949933;28;20489;-82
2022/09/07 16:37:10;;;;;;;1.73;1.45;;;23.10;99.90;;;;;;4939986;28;20509;-82
2022/09/07 16:39:36;;;;;;;3.30;1.80;;;22.90;99.90;;;;;;4950066;28;20129;-80
2022/09/07 16:42:01;;;;;;;2.65;1.27;;;22.60;99.90;;;;;;4935978;28;20035;-82
2022/09/07 16:45:04;;;;;;;3.60;1.20;;;22.50;99.90;;;;;;4932232;28;20745;-83
2022/09/07 16:48:30;;;;;;;4.43;2.03;;;22.50;99.90;;;;;;4935637;28;20044;-82
2022/09/07 16:51:03;;;;;;;1.65;1.25;;;22.50;99.90;;;;;;4886457;29;20544;-81
2022/09/07 16:53:31;;;;;;;2.58;1.80;;;22.40;99.90;;;;;;4923869;28;20502;-80
2022/09/07 16:56:06;;;;;;;3.40;1.73;;;22.30;99.90;;;;;;4938812;28;20042;-82
2022/09/07 16:58:33;;;;;;;;;;;22.20;99.90;;;;;;4920889;28;20055;-81
2022/09/07 17:00:59;;;;;;;5.05;2.15;;;22.10;99.90;;;;;;4943073;28;20435;-82
2022/09/07 17:03:36;;;;;;;2.30;1.33;;;22.00;99.90;;;;;;4936537;28;20543;-83
2022/09/07 17:06:03;;;;;;;4.28;1.80;;;21.80;99.90;;;;;;4914173;28;20077;-83
2022/09/07 17:08:30;;;;;;;3.35;1.63;;;21.60;99.90;;;;;;4946287;28;20039;-82
2022/09/07 17:11:07;;;;;;;1.48;0.90;;;21.40;99.90;;;;;;4917915;28;20081;-82
2022/09/07 17:13:34;;;;;;;1.90;0.90;;;21.30;99.90;;;;;;4935633;28;20123;-79
2022/09/07 17:16:02;;;;;;;1.30;0.93;;;21.10;99.90;;;;;;4931789;28;20118;-80
2022/09/07 17:18:27;;;;;;;1.48;1.08;;;21.10;99.90;;;;;;4931791;28;20035;-84
2022/09/07 17:25:03;;;;;;;3.15;1.02;;;21.00;99.90;;;;;;4936537;28;20097;-84
2022/09/07 17:43:23;;;;;;;1.70;0.70;;;20.50;99.90;;;;;;4860218;29;20048;-84
2022/09/07 18:01:25;;;;;;;1.38;0.90;;;20.30;99.90;;;;;;4856188;29;20134;-83
2022/09/07 18:05:06;;;;;;;0.77;0.40;;;20.20;99.90;;;;;;4899984;29;20127;-84
2022/09/07 18:08:57;;;;;;;1.60;0.88;;;20.20;99.90;;;;;;4894536;29;20059;-84
2022/09/07 18:12:50;;;;;;;2.72;0.73;;;20.10;99.90;;;;;;4910427;29;20090;-84
2022/09/07 18:15:55;;;;;;;4.60;1.33;;;20.10;99.90;;;;;;4874603;29;20120;-84
2022/09/07 18:18:55;;;;;;;2.63;0.90;;;20.00;99.90;;;;;;4897906;29;20056;-84
2022/09/07 18:21:29;;;;;;;3.03;0.80;;;20.00;99.90;;;;;;4905773;28;20515;-82
2022/09/07 18:23:56;;;;;;;1.42;0.68;;;20.00;99.90;;;;;;4938615;29;20044;-83
2022/09/07 18:26:23;;;;;;;5.95;0.77;;;20.00;99.90;;;;;;4933785;28;20079;-82
2022/09/07 18:28:54;;;;;;;4.15;1.15;;;20.00;99.90;;;;;;4939967;28;20147;-85
2022/09/07 18:31:20;;;;;;;1.90;1.27;;;20.00;99.90;;;;;;4950066;28;20050;-84
2022/09/07 18:33:46;;;;;;;2.78;0.95;;;20.00;99.90;;;;;;4938174;28;20080;-82
2022/09/07 18:36:13;;;;;;;1.58;1.10;;;20.00;99.90;;;;;;4931388;28;20059;-83
2022/09/07 18:38:39;;;;;;;2.60;1.50;;;20.00;99.90;;;;;;4934686;28;20052;-83
2022/09/07 18:41:06;;;;;;;2.75;1.27;;;19.80;99.90;;;;;;4937537;28;20043;-82
2022/09/07 18:43:33;;;;;;;1.88;1.45;;;19.70;99.90;;;;;;4935439;28;20043;-83
2022/09/07 18:46:10;;;;;;;1.65;1.10;;;19.60;99.90;;;;;;4935687;28;20880;-82
2022/09/07 18:48:36;;;;;;;2.58;1.20;;;19.60;99.90;;;;;;4917189;28;20492;-83
2022/09/07 18:51:02;;;;;;;2.63;1.40;;;19.50;99.90;;;;;;4935692;28;20046;-82
2022/09/07 18:53:28;;;;;;;2.92;1.50;;;19.50;99.90;;;;;;4936512;28;20058;-82
2022/09/07 18:55:59;;;;;;;1.25;1.10;;;19.40;99.90;;;;;;4934830;28;20055;-83
2022/09/07 18:58:24;;;;;;;3.17;1.10;;;19.40;99.90;;;;;;4930390;28;20581;-83
2022/09/07 19:00:56;;;;;;;1.85;1.13;;;19.30;99.90;;;;;;4936471;28;20055;-83
2022/09/07 19:03:22;;;;;;;2.17;1.40;;;19.20;99.90;;;;;;4937031;28;20122;-82
2022/09/07 19:05:48;;;;;;;1.10;0.95;;;19.10;99.90;;;;;;4922557;28;20059;-83
2022/09/07 19:08:14;;;;;;;4.43;1.55;;;19.00;99.90;;;;;;4933209;28;20043;-83
2022/09/07 19:10:39;;;;;;;2.38;1.40;;;19.00;99.90;;;;;;4938684;29;20047;-83
2022/09/07 19:13:05;;;;;;;1.48;1.15;;;19.00;99.90;;;;;;4942153;28;20056;-83
2022/09/07 19:15:34;;;;;;;2.50;1.33;;;18.90;99.90;;;;;;4941054;28;20059;-82
2022/09/07 19:18:03;;;;;;;1.48;1.38;;;18.90;99.90;;;;;;4954063;28;20107;-82
2022/09/07 19:20:29;;;;;;;1.48;1.00;;;18.90;99.90;;;;;;4925840;28;20051;-83
2022/09/07 19:22:55;;;;;;;1.02;0.70;;;18.90;99.90;;;;;;4941975;28;20047;-83
2022/09/07 19:25:22;;;;;;;1.80;1.10;;;18.90;99.90;;;;;;4944618;28;20043;-83
2022/09/07 19:27:48;;;;;;;2.33;1.20;;;18.80;99.90;;;;;;4958523;28;20051;-83
2022/09/07 19:30:14;;;;;;;3.10;1.73;;;18.80;99.90;;;;;;4945552;28;20050;-83
2022/09/07 19:32:40;;;;;;;1.58;1.20;;;18.70;99.90;;;;;;4941182;28;20047;-82
2022/09/07 19:35:06;;;;;;;1.55;1.30;;;18.70;99.90;;;;;;4942503;28;20389;-82
2022/09/07 19:37:31;;;;;;;1.98;0.90;;;18.60;99.90;;;;;;4931193;29;20047;-82
2022/09/07 19:39:57;;;;;;;3.72;1.60;;;18.80;99.90;;;;;;4945299;28;20039;-82
2022/09/07 19:42:24;;;;;;;2.50;1.40;;;18.50;99.90;;;;;;4940986;28;20044;-82
2022/09/07 19:44:51;;;;;;;1.95;1.60;;;18.40;99.90;;;;;;4943721;28;20039;-82
2022/09/07 19:47:16;;;;;;;2.55;1.50;;;18.40;99.90;;;;;;4958590;28;20089;-82
2022/09/07 19:49:42;;;;;;;3.00;1.85;;;18.30;99.90;;;;;;4943665;28;20558;-82
2022/09/07 19:52:08;;;;;;;2.72;1.35;;;18.30;99.90;;;;;;4941752;28;20070;-82
2022/09/07 19:54:35;;;;;;;5.63;2.30;;;18.40;99.90;;;;;;4943512;28;20079;-82
2022/09/07 19:57:02;;;;;;;5.25;2.53;;;18.40;99.90;;;;;;4927502;29;20147;-82
2022/09/07 19:59:28;;;;;;;4.18;2.40;;;18.50;99.90;;;;;;4939331;28;20046;-83
2022/09/07 20:01:54;;;;;;;3.55;2.08;;;18.30;99.90;;;;;;4932796;28;22024;-84
2022/09/07 20:04:22;;;;;;;7.03;2.85;;;18.30;99.90;;;;;;4924228;29;20186;-84
2022/09/07 20:06:49;;;;;;;2.25;1.85;;;18.30;99.90;;;;;;4926607;29;20154;-84
2022/09/07 20:09:16;;;;;;;2.50;2.28;;;18.20;99.90;;;;;;4925762;28;20054;-84
2022/09/07 20:11:42;;;;;;;2.53;2.20;;;18.20;99.90;;;;;;4953560;28;20050;-84
2022/09/07 20:14:08;;;;;;;4.55;2.70;;;18.20;99.90;;;;;;4925119;29;20063;-84
2022/09/07 20:16:38;;;;;;;3.58;2.83;;;18.00;99.90;;;;;;4938283;28;20513;-83
2022/09/07 20:19:07;;;;;;;5.13;3.28;;;18.00;99.90;;;;;;4941844;28;20051;-82
2022/09/07 20:21:35;;;;;;;4.20;2.60;;;17.90;99.90;;;;;;4947830;28;20097;-82
2022/09/07 20:24:02;;;;;;;6.28;2.72;;;17.80;99.90;;;;;;4944023;28;20048;-83
2022/09/07 20:26:29;;;;;;;4.03;2.80;;;17.80;99.90;;;;;;4938558;28;20102;-83
2022/09/07 20:28:55;;;;;;;4.10;1.67;;;17.80;99.90;;;;;;4955760;28;20130;-83
2022/09/07 20:31:22;;;;;;;1.95;1.75;;;17.80;99.90;;;;;;4942571;28;20047;-82
2022/09/07 20:33:50;;;;;;;3.35;2.65;;;17.80;99.90;;;;;;4941801;28;20051;-82
2022/09/07 20:36:20;;;;;;;2.15;1.95;;;17.70;99.90;;;;;;4945244;28;20065;-82
2022/09/07 20:38:53;;;;;;;1.70;1.60;;;17.60;99.90;;;;;;4940179;28;20127;-82
2022/09/07 20:41:22;;;;;;;3.78;1.80;;;17.70;99.90;;;;;;4943142;28;20043;-82
2022/09/07 20:43:49;;;;;;;2.50;2.30;;;17.60;99.90;;;;;;4930178;28;20042;-82
2022/09/07 20:46:15;;;;;;;2.53;1.70;;;17.60;99.90;;;;;;4952157;28;20043;-82
2022/09/07 20:48:41;;;;;;;3.22;1.88;;;17.60;99.90;;;;;;4953883;28;20047;-82
2022/09/07 20:51:09;;;;;;;2.00;1.80;;;17.60;99.90;;;;;;4951211;28;20043;-83
2022/09/07 20:53:36;;;;;;;2.70;2.30;;;17.70;99.90;;;;;;4935634;29;20039;-82
2022/09/07 20:56:06;;;;;;;1.63;1.52;;;17.60;99.90;;;;;;4940415;28;20874;-82
2022/09/07 20:58:33;;;;;;;3.38;1.88;;;17.50;99.90;;;;;;4933470;28;20138;-83
2022/09/07 21:01:01;;;;;;;3.33;1.85;;;17.50;99.90;;;;;;4937772;28;20051;-83
2022/09/07 21:03:26;;;;;;;2.28;1.75;;;17.50;99.90;;;;;;4934256;28;20051;-83
2022/09/07 21:05:52;;;;;;;2.83;1.65;;;17.50;99.90;;;;;;4949733;28;20050;-83
2022/09/07 21:08:18;;;;;;;2.10;1.60;;;17.40;99.90;;;;;;4935023;28;20039;-82
2022/09/07 21:10:45;;;;;;;3.38;1.80;;;17.40;99.90;;;;;;4947107;28;20043;-82
2022/09/07 21:13:12;;;;;;;1.52;1.40;;;17.40;99.90;;;;;;4935370;28;20051;-82
2022/09/07 21:15:41;;;;;;;3.63;1.52;;;17.30;99.90;;;;;;4949584;28;20050;-83
2022/09/07 21:18:12;;;;;;;3.45;1.58;;;17.30;99.90;;;;;;4935992;28;20047;-82
2022/09/07 21:20:37;;;;;;;5.82;1.40;;;17.20;99.90;;;;;;4950648;28;20095;-83
2022/09/07 21:23:03;;;;;;;1.52;1.42;;;17.20;99.90;;;;;;4936528;28;20063;-83
2022/09/07 21:25:30;;;;;;;2.45;1.85;;;17.20;99.90;;;;;;4949310;28;20054;-83
2022/09/07 21:27:55;;;;;;;3.00;1.90;;;17.20;99.90;;;;;;4948470;28;20039;-83
2022/09/07 21:30:21;;;;;;;2.97;1.90;;;17.20;99.90;;;;;;4941575;28;20121;-83
2022/09/07 21:32:50;;;;;;;2.45;1.90;;;17.30;99.90;;;;;;4956454;28;20058;-83
2022/09/07 21:35:21;;;;;;;2.40;1.65;;;17.20;99.90;;;;;;4951046;28;20051;-83
2022/09/07 21:37:47;;;;;;;2.50;2.30;;;17.20;99.90;;;;;;4940018;28;20151;-83
2022/09/07 21:40:12;;;;;;;2.50;1.98;;;17.20;99.90;;;;;;4951777;28;20138;-83
2022/09/07 21:42:38;;;;;;;5.53;2.33;;;17.20;99.90;;;;;;4944350;28;20126;-84
2022/09/07 21:45:05;;;;;;;2.30;2.10;;;17.20;99.90;;;;;;4937248;28;20036;-83
2022/09/07 21:47:32;;;;;;;2.60;2.30;;;17.20;99.90;;;;;;4946011;28;20035;-83
2022/09/07 21:49:57;;;;;;;1.92;1.83;;;17.20;99.90;;;;;;4949658;28;20048;-83
2022/09/07 21:52:23;;;;;;;3.13;2.83;;;17.20;99.90;;;;;;4936498;28;20039;-83
2022/09/07 21:54:48;;;;;;;3.63;2.92;;;17.20;99.90;;;;;;4949418;28;20045;-83
2022/09/07 21:57:14;;;;;;;6.53;3.78;;;17.10;99.90;;;;;;4940688;28;20035;-83